^^
Saratoga-Weather Station Historical Data
Daily Summary for April 17, 2021 Units:  Metric    English   Both
Daily Weekly Monthly Yearly Custom
  High: Low: Average:
Temperature: 18 °C 10.8 °C 14.3 °C
Dew Point: 13.3 °C 9.8 °C 11.7 °C
Humidity: 94% 70% 85%
Wind Speed: 16.3km/h 0km/h 4.5km/h
Wind Gust: 19.3km/h - -
Wind- - WNW
Pressure: 1021.3 hPa 1017.6 hPa -
Precipitation: 0.5 mm    
Historical Graphs
 
 
Tabular Data for April 17, 2021
Time Temperature Dew Point Pressure Wind Wind Speed Wind Gust Humidity Rainfall Rate (Hourly) solar
00:00 13.7 °C 11.4 °C 1019.3 hPa West 4.7 km/h 4.8 km/h 86% 0.0 mm 0 W/m2
00:05 13.6 °C 11.3 °C 1019.3 hPa WNW 3.2 km/h 4.8 km/h 86% 0.0 mm 0 W/m2
00:10 13.6 °C 11.3 °C 1019.3 hPa West 4.7 km/h 6.4 km/h 86% 0.0 mm 0 W/m2
00:15 13.5 °C 11.2 °C 1019.3 hPa West 3.2 km/h 6.4 km/h 86% 0.0 mm 0 W/m2
00:20 13.4 °C 11.3 °C 1019.3 hPa West 6.4 km/h 9.7 km/h 87% 0.0 mm 0 W/m2
00:25 13.4 °C 11.1 °C 1019.3 hPa West 4.7 km/h 9.7 km/h 86% 0.0 mm 0 W/m2
00:30 13.5 °C 11.2 °C 1019.3 hPa WNW 4.7 km/h 8 km/h 86% 0.0 mm 0 W/m2
00:35 13.5 °C 11.2 °C 1019.3 hPa West 3.2 km/h 11.3 km/h 86% 0.0 mm 0 W/m2
00:40 13.6 °C 11.1 °C 1019.3 hPa NW 6.4 km/h 6.4 km/h 85% 0.0 mm 0 W/m2
00:45 13.6 °C 11.1 °C 1019.3 hPa West 3.2 km/h 12.9 km/h 85% 0.0 mm 0 W/m2
00:50 13.5 °C 11 °C 1019.3 hPa West 3.2 km/h 9.7 km/h 85% 0.0 mm 0 W/m2
00:55 13.4 °C 10.9 °C 1019.3 hPa West 6.4 km/h 12.9 km/h 85% 0.0 mm 0 W/m2
01:00 13.3 °C 11 °C 1019.6 hPa West 1.4 km/h 4.8 km/h 86% 0.0 mm 0 W/m2
01:05 13.2 °C 10.9 °C 1019.6 hPa West 3.2 km/h 11.3 km/h 86% 0.0 mm 0 W/m2
01:10 13.2 °C 11.1 °C 1019.6 hPa WNW 1.4 km/h 8 km/h 87% 0.0 mm 0 W/m2
01:15 13.2 °C 11.1 °C 1019.6 hPa WNW 6.4 km/h 9.7 km/h 87% 0.0 mm 0 W/m2
01:20 13.2 °C 11.1 °C 1019.6 hPa WNW 6.4 km/h 12.9 km/h 87% 0.0 mm 0 W/m2
01:25 13.2 °C 11.3 °C 1019.6 hPa West 4.7 km/h 6.4 km/h 88% 0.0 mm 0 W/m2
01:30 13.2 °C 11.3 °C 1019.6 hPa West 1.4 km/h 4.8 km/h 88% 0.0 mm 0 W/m2
01:35 13.2 °C 11.3 °C 1019.6 hPa West 3.2 km/h 4.8 km/h 88% 0.0 mm 0 W/m2
01:40 13.2 °C 11.3 °C 1019.6 hPa WNW 4.7 km/h 12.9 km/h 88% 0.0 mm 0 W/m2
01:45 13.2 °C 11.3 °C 1019.6 hPa WNW 3.2 km/h 9.7 km/h 88% 0.0 mm 0 W/m2
01:50 13.2 °C 11.3 °C 1019.6 hPa West 4.7 km/h 12.9 km/h 88% 0.0 mm 0 W/m2
01:55 13.1 °C 11.3 °C 1019.6 hPa WNW 3.2 km/h 11.3 km/h 89% 0.0 mm 0 W/m2
02:00 13.1 °C 11.3 °C 1019.6 hPa West 4.7 km/h 12.9 km/h 89% 0.0 mm 0 W/m2
02:05 13.1 °C 11.3 °C 1019.6 hPa WNW 3.2 km/h 6.4 km/h 89% 0.0 mm 0 W/m2
02:10 13.1 °C 11.3 °C 1019.6 hPa West 3.2 km/h 12.9 km/h 89% 0.0 mm 0 W/m2
02:15 13.1 °C 11.3 °C 1019.6 hPa West 9.7 km/h 12.9 km/h 89% 0.0 mm 0 W/m2
02:20 13.1 °C 11.3 °C 1019.3 hPa WNW 6.4 km/h 12.9 km/h 89% 0.0 mm 0 W/m2
02:25 13 °C 11.2 °C 1019.3 hPa West 9.7 km/h 11.3 km/h 89% 0.0 mm 0 W/m2
02:30 12.9 °C 11.1 °C 1019.3 hPa West 6.4 km/h 8 km/h 89% 0.0 mm 0 W/m2
02:35 12.9 °C 11.3 °C 1019.3 hPa West 11.1 km/h 11.3 km/h 90% 0.0 mm 0 W/m2
02:40 12.9 °C 11.3 °C 1019.3 hPa WNW 7.9 km/h 9.7 km/h 90% 0.0 mm 0 W/m2
02:45 12.8 °C 11.2 °C 1019.3 hPa SW 4.7 km/h 9.7 km/h 90% 0.0 mm 0 W/m2
02:50 12.8 °C 11.2 °C 1019.3 hPa West 9.7 km/h 9.7 km/h 90% 0.0 mm 0 W/m2
02:55 12.8 °C 11.2 °C 1019.3 hPa West 3.2 km/h 9.7 km/h 90% 0.0 mm 0 W/m2
03:00 12.8 °C 11.2 °C 1019.3 hPa WNW 4.7 km/h 9.7 km/h 90% 0.0 mm 0 W/m2
03:05 12.7 °C 11.1 °C 1019.3 hPa West 3.2 km/h 6.4 km/h 90% 0.0 mm 0 W/m2
03:10 12.7 °C 11.1 °C 1019.3 hPa WNW 4.7 km/h 6.4 km/h 90% 0.0 mm 0 W/m2
03:15 12.6 °C 11.2 °C 1019.3 hPa WNW 6.4 km/h 8 km/h 91% 0.0 mm 0 W/m2
03:20 12.6 °C 11.2 °C 1019.3 hPa West 6.4 km/h 11.3 km/h 91% 0.0 mm 0 W/m2
03:25 12.6 °C 11.2 °C 1019.3 hPa West 3.2 km/h 6.4 km/h 91% 0.0 mm 0 W/m2
03:30 12.6 °C 11.2 °C 1019.6 hPa WNW 3.2 km/h 11.3 km/h 91% 0.0 mm 0 W/m2
03:35 12.6 °C 11.2 °C 1019.6 hPa West 3.2 km/h 4.8 km/h 91% 0.0 mm 0 W/m2
03:40 12.5 °C 11.1 °C 1019.6 hPa NW 4.7 km/h 11.3 km/h 91% 0.0 mm 0 W/m2
03:45 12.4 °C 11 °C 1019.6 hPa West 1.4 km/h 6.4 km/h 91% 0.0 mm 0 W/m2
03:50 12.4 °C 11 °C 1019.6 hPa WNW 1.4 km/h 6.4 km/h 91% 0.0 mm 0 W/m2
03:55 12.3 °C 10.9 °C 1019.6 hPa West 3.2 km/h 3.2 km/h 91% 0.0 mm 0 W/m2
04:00 12.3 °C 10.9 °C 1019.6 hPa West 1.4 km/h 9.7 km/h 91% 0.0 mm 0 W/m2
04:05 12.2 °C 10.8 °C 1019.6 hPa West 4.7 km/h 6.4 km/h 91% 0.0 mm 0 W/m2
04:10 12.2 °C 10.9 °C 1019.6 hPa West 6.4 km/h 9.7 km/h 92% 0.0 mm 0 W/m2
04:15 12.2 °C 10.9 °C 1019.6 hPa WNW 3.2 km/h 9.7 km/h 92% 0.0 mm 0 W/m2
04:21 12.2 °C 10.9 °C 1019.6 hPa SW 6.4 km/h 8 km/h 92% 0.0 mm 0 W/m2
04:26 12.2 °C 10.9 °C 1019.6 hPa West 11.1 km/h 11.3 km/h 92% 0.0 mm 0 W/m2
04:31 12.2 °C 10.8 °C 1019.6 hPa WSW 6.4 km/h 9.7 km/h 91% 0.0 mm 0 W/m2
04:36 12.1 °C 10.7 °C 1019.6 hPa NW 4.7 km/h 11.3 km/h 91% 0.0 mm 0 W/m2
04:41 12.1 °C 10.7 °C 1019.6 hPa WSW 4.7 km/h 8 km/h 91% 0.0 mm 0 W/m2
04:46 12.1 °C 10.8 °C 1019.6 hPa West 4.7 km/h 6.4 km/h 92% 0.0 mm 0 W/m2
04:51 12 °C 10.7 °C 1019.6 hPa Calm   4.8 km/h 92% 0.0 mm 0 W/m2
04:56 12 °C 10.7 °C 1019.6 hPa WNW 1.4 km/h 4.8 km/h 92% 0.0 mm 0 W/m2
05:01 11.9 °C 10.6 °C 1019.6 hPa WNW 1.4 km/h 3.2 km/h 92% 0.0 mm 0 W/m2
05:06 11.9 °C 10.5 °C 1019.6 hPa Calm     91% 0.0 mm 0 W/m2
05:11 11.8 °C 10.5 °C 1019.6 hPa NNW 3.2 km/h 9.7 km/h 92% 0.0 mm 0 W/m2
05:16 11.8 °C 10.5 °C 1019.6 hPa Calm   1.6 km/h 92% 0.0 mm 0 W/m2
05:21 11.7 °C 10.3 °C 1019.6 hPa Calm   6.4 km/h 91% 0.0 mm 0 W/m2
05:26 11.6 °C 10.3 °C 1019.6 hPa Calm     92% 0.0 mm 0 W/m2
05:31 11.5 °C 10.2 °C 1019.6 hPa Calm     92% 0.0 mm 0 W/m2
05:36 11.4 °C 10.1 °C 1019.6 hPa NNW 1.4 km/h 1.6 km/h 92% 0.0 mm 0 W/m2
05:41 11.3 °C 10 °C 1019.6 hPa WNW 1.4 km/h 4.8 km/h 92% 0.0 mm 0 W/m2
05:46 11.3 °C 10 °C 1019.6 hPa WNW 4.7 km/h 4.8 km/h 92% 0.0 mm 0 W/m2
05:51 11.3 °C 10.2 °C 1019.6 hPa WNW 1.4 km/h 1.6 km/h 93% 0.0 mm 0 W/m2
05:56 11.3 °C 10.2 °C 1019.6 hPa NNW 1.4 km/h 3.2 km/h 93% 0.0 mm 0 W/m2
06:01 11.3 °C 10.2 °C 1019.6 hPa Calm   1.6 km/h 93% 0.0 mm 0 W/m2
06:06 11.3 °C 10.2 °C 1020.0 hPa NNW 1.4 km/h 3.2 km/h 93% 0.0 mm 0 W/m2
06:11 11.2 °C 10.1 °C 1020.0 hPa Calm   4.8 km/h 93% 0.0 mm 0 W/m2
06:16 11.2 °C 10.1 °C 1020.0 hPa Calm   6.4 km/h 93% 0.0 mm 0 W/m2
06:21 11.1 °C 10 °C 1020.0 hPa NNW 4.7 km/h 8 km/h 93% 0.0 mm 0 W/m2
06:26 11.1 °C 10 °C 1020.0 hPa WNW 3.2 km/h 4.8 km/h 93% 0.0 mm 0 W/m2
06:31 11.1 °C 10 °C 1020.3 hPa North 6.4 km/h 8 km/h 93% 0.0 mm 0 W/m2
06:36 11 °C 9.9 °C 1020.0 hPa NW 3.2 km/h 4.8 km/h 93% 0.0 mm 5 W/m2
06:41 10.9 °C 9.8 °C 1020.0 hPa WNW 1.4 km/h 6.4 km/h 93% 0.0 mm 7 W/m2
06:46 10.9 °C 10 °C 1020.0 hPa WNW 3.2 km/h 6.4 km/h 94% 0.0 mm 11 W/m2
06:51 10.9 °C 10 °C 1020.0 hPa NW 1.4 km/h 6.4 km/h 94% 0.0 mm 14 W/m2
06:56 10.9 °C 10 °C 1020.0 hPa WNW 3.2 km/h 6.4 km/h 94% 0.0 mm 14 W/m2
07:01 10.8 °C 9.9 °C 1020.0 hPa West 3.2 km/h 6.4 km/h 94% 0.0 mm 12 W/m2
07:06 10.8 °C 9.9 °C 1020.0 hPa NW 1.4 km/h 6.4 km/h 94% 0.0 mm 12 W/m2
07:11 10.8 °C 9.9 °C 1020.0 hPa Calm   1.6 km/h 94% 0.0 mm 23 W/m2
07:16 10.8 °C 9.9 °C 1020.0 hPa Calm   1.6 km/h 94% 0.0 mm 46 W/m2
07:21 10.8 °C 9.9 °C 1020.3 hPa NW 3.2 km/h 4.8 km/h 94% 0.0 mm 60 W/m2
07:26 10.8 °C 9.9 °C 1020.3 hPa WNW 9.7 km/h 9.7 km/h 94% 0.0 mm 70 W/m2
07:32 10.8 °C 9.9 °C 1020.3 hPa West 3.2 km/h 6.4 km/h 94% 0.0 mm 63 W/m2
07:37 10.8 °C 9.9 °C 1020.3 hPa WNW 3.2 km/h 11.3 km/h 94% 0.0 mm 91 W/m2
07:42 10.8 °C 9.9 °C 1020.3 hPa NW 3.2 km/h 6.4 km/h 94% 0.0 mm 107 W/m2
07:47 10.9 °C 10 °C 1020.3 hPa WNW 1.4 km/h 11.3 km/h 94% 0.0 mm 102 W/m2
07:52 11 °C 10.1 °C 1020.3 hPa NW 1.4 km/h 3.2 km/h 94% 0.0 mm 88 W/m2
07:57 11.1 °C 10.2 °C 1020.3 hPa WNW 1.4 km/h 6.4 km/h 94% 0.0 mm 95 W/m2
08:02 11.1 °C 10.2 °C 1020.7 hPa NW 1.4 km/h 8 km/h 94% 0.0 mm 97 W/m2
08:07 11.1 °C 10.2 °C 1020.7 hPa WNW 4.7 km/h 4.8 km/h 94% 0.0 mm 109 W/m2
08:12 11.1 °C 10 °C 1020.7 hPa NW 3.2 km/h 11.3 km/h 93% 0.0 mm 97 W/m2
08:17 11.2 °C 10.1 °C 1020.7 hPa West 4.7 km/h 6.4 km/h 93% 0.0 mm 95 W/m2
08:22 11.3 °C 10.4 °C 1020.7 hPa WNW 3.2 km/h 6.4 km/h 94% 0.0 mm 98 W/m2
08:27 11.3 °C 10.2 °C 1020.7 hPa WNW 3.2 km/h 8 km/h 93% 0.0 mm 107 W/m2
08:32 11.4 °C 10.3 °C 1021.0 hPa WNW 3.2 km/h 8 km/h 93% 0.0 mm 118 W/m2
08:37 11.4 °C 10.3 °C 1021.0 hPa WNW 3.2 km/h 4.8 km/h 93% 0.0 mm 141 W/m2
08:42 11.6 °C 10.3 °C 1021.0 hPa NW 4.7 km/h 11.3 km/h 92% 0.0 mm 137 W/m2
08:47 11.6 °C 10.3 °C 1021.0 hPa West 4.7 km/h 4.8 km/h 92% 0.0 mm 163 W/m2
08:52 11.7 °C 10.4 °C 1021.0 hPa WNW 4.7 km/h 11.3 km/h 92% 0.0 mm 81 W/m2
08:57 11.7 °C 10.4 °C 1021.0 hPa West 6.4 km/h 6.4 km/h 92% 0.0 mm 120 W/m2
09:02 11.7 °C 10.3 °C 1021.0 hPa WNW 4.7 km/h 11.3 km/h 91% 0.0 mm 155 W/m2
09:07 11.8 °C 10.4 °C 1021.0 hPa NW 4.7 km/h 11.3 km/h 91% 0.0 mm 139 W/m2
09:12 11.8 °C 10.4 °C 1021.0 hPa WNW 4.7 km/h 6.4 km/h 91% 0.0 mm 137 W/m2
09:17 11.9 °C 10.6 °C 1021.3 hPa West 1.4 km/h 11.3 km/h 92% 0.0 mm 139 W/m2
09:22 12 °C 10.6 °C 1021.3 hPa WNW 7.9 km/h 12.9 km/h 91% 0.0 mm 151 W/m2
09:27 12 °C 10.6 °C 1021.3 hPa WNW 4.7 km/h 9.7 km/h 91% 0.0 mm 213 W/m2
09:32 12.1 °C 10.5 °C 1021.3 hPa NNW 3.2 km/h 6.4 km/h 90% 0.0 mm 192 W/m2
09:37 12.2 °C 10.8 °C 1021.0 hPa WNW 3.2 km/h 6.4 km/h 91% 0.0 mm 155 W/m2
09:42 12.2 °C 10.8 °C 1021.3 hPa SW 4.7 km/h 9.7 km/h 91% 0.0 mm 202 W/m2
09:47 12.3 °C 10.7 °C 1021.3 hPa WNW 7.9 km/h 12.9 km/h 90% 0.0 mm 195 W/m2
09:52 12.3 °C 10.7 °C 1021.3 hPa West 1.4 km/h 4.8 km/h 90% 0.0 mm 214 W/m2
09:57 12.4 °C 10.8 °C 1021.3 hPa NNW 4.7 km/h 12.9 km/h 90% 0.0 mm 176 W/m2
10:02 12.4 °C 10.8 °C 1021.0 hPa NW 6.4 km/h 6.4 km/h 90% 0.0 mm 156 W/m2
10:07 12.6 °C 11 °C 1021.3 hPa NW 14.3 km/h 14.5 km/h 90% 0.0 mm 241 W/m2
10:12 12.6 °C 10.8 °C 1021.3 hPa WNW 6.4 km/h 11.3 km/h 89% 0.0 mm 304 W/m2
10:17 12.8 °C 11 °C 1021.3 hPa NW 4.7 km/h 6.4 km/h 89% 0.0 mm 202 W/m2
10:22 13 °C 11.2 °C 1021.3 hPa West 4.7 km/h 11.3 km/h 89% 0.0 mm 258 W/m2
10:27 13.1 °C 11.2 °C 1021.3 hPa NNW 3.2 km/h 9.7 km/h 88% 0.0 mm 265 W/m2
10:32 13.2 °C 11.3 °C 1021.3 hPa Calm   4.8 km/h 88% 0.0 mm 330 W/m2
10:37 13.4 °C 11.5 °C 1021.3 hPa SW 3.2 km/h 6.4 km/h 88% 0.0 mm 318 W/m2
10:42 13.7 °C 11.6 °C 1021.0 hPa WNW 3.2 km/h 8 km/h 87% 0.0 mm 353 W/m2
10:47 13.8 °C 11.5 °C 1021.0 hPa WNW 7.9 km/h 12.9 km/h 86% 0.0 mm 299 W/m2
10:52 13.9 °C 11.6 °C 1021.0 hPa NW 9.7 km/h 9.7 km/h 86% 0.0 mm 265 W/m2
10:57 14 °C 11.7 °C 1021.0 hPa West 3.2 km/h 8 km/h 86% 0.0 mm 311 W/m2
11:02 14.2 °C 11.9 °C 1021.0 hPa NNW 4.7 km/h 6.4 km/h 86% 0.0 mm 318 W/m2
11:07 14.3 °C 11.8 °C 1021.0 hPa NNW 4.7 km/h 8 km/h 85% 0.0 mm 381 W/m2
11:12 14.4 °C 11.9 °C 1021.0 hPa West 1.4 km/h 9.7 km/h 85% 0.0 mm 371 W/m2
11:17 14.5 °C 11.8 °C 1020.7 hPa WNW 3.2 km/h 11.3 km/h 84% 0.0 mm 313 W/m2
11:22 14.6 °C 11.9 °C 1020.7 hPa NW 3.2 km/h 11.3 km/h 84% 0.0 mm 329 W/m2
11:27 14.8 °C 12.1 °C 1020.7 hPa West 4.7 km/h 9.7 km/h 84% 0.0 mm 473 W/m2
11:32 15.1 °C 12.4 °C 1020.7 hPa West 3.2 km/h 11.3 km/h 84% 0.0 mm 320 W/m2
11:37 15.1 °C 12 °C 1020.7 hPa SW 4.7 km/h 11.3 km/h 82% 0.0 mm 236 W/m2
11:42 15.1 °C 12.2 °C 1020.7 hPa WNW 4.7 km/h 6.4 km/h 83% 0.0 mm 478 W/m2
11:47 15.2 °C 12.1 °C 1020.7 hPa SW 1.4 km/h 12.9 km/h 82% 0.0 mm 592 W/m2
11:52 15.3 °C 12.4 °C 1020.7 hPa WNW 3.2 km/h 6.4 km/h 83% 0.0 mm 800 W/m2
11:57 15.6 °C 12.4 °C 1020.7 hPa SW 9.7 km/h 9.7 km/h 81% 0.0 mm 545 W/m2
12:02 15.8 °C 12.4 °C 1020.3 hPa NW 7.9 km/h 14.5 km/h 80% 0.0 mm 371 W/m2
12:07 15.9 °C 12.5 °C 1020.3 hPa NW 3.2 km/h 11.3 km/h 80% 0.0 mm 629 W/m2
12:12 16.1 °C 12.3 °C 1020.3 hPa WNW 6.4 km/h 12.9 km/h 78% 0.0 mm 504 W/m2
12:17 16.3 °C 12.3 °C 1020.3 hPa NW 4.7 km/h 16.1 km/h 77% 0.0 mm 819 W/m2
12:22 16.4 °C 12.2 °C 1020.3 hPa WSW 4.7 km/h 12.9 km/h 76% 0.0 mm 346 W/m2
12:27 16.5 °C 12.7 °C 1020.3 hPa WSW 3.2 km/h 8 km/h 78% 0.0 mm 450 W/m2
12:32 16.6 °C 12.4 °C 1020.3 hPa WNW 3.2 km/h 16.1 km/h 76% 0.0 mm 396 W/m2
12:37 16.6 °C 12.4 °C 1020.3 hPa NW 3.2 km/h 6.4 km/h 76% 0.0 mm 455 W/m2
12:42 16.7 °C 12.4 °C 1020.3 hPa WSW 7.9 km/h 16.1 km/h 76% 0.0 mm 216 W/m2
12:47 16.7 °C 12.4 °C 1020.3 hPa West 6.4 km/h 8 km/h 76% 0.0 mm 209 W/m2
12:52 16.4 °C 12.2 °C 1020.3 hPa NNW 4.7 km/h 6.4 km/h 76% 0.0 mm 132 W/m2
12:57 16.4 °C 12.4 °C 1020.3 hPa West 4.7 km/h 9.7 km/h 77% 0.0 mm 323 W/m2
13:02 16.5 °C 12.5 °C 1020.3 hPa NW 3.2 km/h 4.8 km/h 77% 0.0 mm 283 W/m2
13:07 16.7 °C 12.4 °C 1020.3 hPa SW 4.7 km/h 9.7 km/h 76% 0.0 mm 345 W/m2
13:12 16.8 °C 12.5 °C 1020.3 hPa WSW 1.4 km/h 11.3 km/h 76% 0.0 mm 274 W/m2
13:17 16.9 °C 12.6 °C 1020.3 hPa WNW 3.2 km/h 4.8 km/h 76% 0.0 mm 243 W/m2
13:22 16.9 °C 12.2 °C 1020.3 hPa West 3.2 km/h 11.3 km/h 74% 0.0 mm 297 W/m2
13:27 17 °C 12.1 °C 1020.0 hPa West 4.7 km/h 6.4 km/h 73% 0.0 mm 348 W/m2
13:32 17.2 °C 12.3 °C 1020.3 hPa West 4.7 km/h 9.7 km/h 73% 0.0 mm 320 W/m2
13:37 17.3 °C 12.4 °C 1020.0 hPa Calm   4.8 km/h 73% 0.0 mm 469 W/m2
13:42 17.4 °C 12.3 °C 1020.0 hPa NW 6.4 km/h 12.9 km/h 72% 0.0 mm 439 W/m2
13:47 17.6 °C 12.3 °C 1020.0 hPa WSW 4.7 km/h 12.9 km/h 71% 0.0 mm 241 W/m2
13:52 17.4 °C 12.1 °C 1019.6 hPa NW 4.7 km/h 6.4 km/h 71% 0.0 mm 156 W/m2
13:57 17.3 °C 12 °C 1019.6 hPa West 11.1 km/h 11.3 km/h 71% 0.0 mm 114 W/m2
14:02 17.1 °C 12 °C 1019.6 hPa SSW 4.7 km/h 8 km/h 72% 0.0 mm 83 W/m2
14:07 16.9 °C 12 °C 1019.6 hPa West 6.4 km/h 6.4 km/h 73% 0.0 mm 63 W/m2
14:12 16.8 °C 11.9 °C 1019.6 hPa West 3.2 km/h 12.9 km/h 73% 0.0 mm 49 W/m2
14:17 16.6 °C 12.4 °C 1019.6 hPa West 1.4 km/h 4.8 km/h 76% 0.0 mm 70 W/m2
14:22 16.4 °C 12.4 °C 1019.6 hPa West 3.2 km/h 12.9 km/h 77% 0.0 mm 134 W/m2
14:27 16.3 °C 12.3 °C 1019.6 hPa WNW 6.4 km/h 9.7 km/h 77% 0.0 mm 169 W/m2
14:33 16.3 °C 12.5 °C 1019.6 hPa West 4.7 km/h 6.4 km/h 78% 0.0 mm 239 W/m2
14:38 16.4 °C 12.6 °C 1019.3 hPa West 3.2 km/h 6.4 km/h 78% 0.0 mm 250 W/m2
14:43 16.6 °C 12.6 °C 1019.3 hPa WNW 3.2 km/h 6.4 km/h 77% 0.0 mm 237 W/m2
14:48 16.7 °C 12.4 °C 1019.0 hPa WSW 3.2 km/h 6.4 km/h 76% 0.0 mm 255 W/m2
14:53 16.9 °C 12.4 °C 1019.0 hPa West 4.7 km/h 6.4 km/h 75% 0.0 mm 309 W/m2
14:58 17.1 °C 12.4 °C 1019.0 hPa WNW 6.4 km/h 6.4 km/h 74% 0.0 mm 227 W/m2
15:03 17.2 °C 12.3 °C 1019.0 hPa WNW 4.7 km/h 12.9 km/h 73% 0.0 mm 230 W/m2
15:08 17.3 °C 12.6 °C 1019.0 hPa WNW 1.4 km/h 3.2 km/h 74% 0.0 mm 306 W/m2
15:13 17.5 °C 12.6 °C 1019.0 hPa NW 4.7 km/h 12.9 km/h 73% 0.0 mm 251 W/m2
15:18 17.6 °C 12.7 °C 1019.0 hPa West 9.7 km/h 9.7 km/h 73% 0.0 mm 186 W/m2
15:23 17.5 °C 12.4 °C 1019.0 hPa NW 9.7 km/h 11.3 km/h 72% 0.0 mm 169 W/m2
15:28 17.5 °C 12.6 °C 1019.0 hPa WSW 6.4 km/h 11.3 km/h 73% 0.0 mm 188 W/m2
15:33 17.4 °C 12.5 °C 1018.6 hPa NW 3.2 km/h 9.7 km/h 73% 0.0 mm 153 W/m2
15:38 17.5 °C 12.8 °C 1019.0 hPa WNW 11.1 km/h 11.3 km/h 74% 0.0 mm 142 W/m2
15:43 17.4 °C 12.7 °C 1018.6 hPa WSW 6.4 km/h 11.3 km/h 74% 0.0 mm 151 W/m2
15:48 17.3 °C 12.6 °C 1018.6 hPa NW 3.2 km/h 6.4 km/h 74% 0.0 mm 214 W/m2
15:53 17.3 °C 12.6 °C 1018.6 hPa West 3.2 km/h 6.4 km/h 74% 0.0 mm 218 W/m2
15:58 17.2 °C 12.5 °C 1018.6 hPa WSW 3.2 km/h 6.4 km/h 74% 0.0 mm 243 W/m2
16:03 17.2 °C 12.7 °C 1018.6 hPa WNW 3.2 km/h 4.8 km/h 75% 0.0 mm 357 W/m2
16:08 17.4 °C 13.1 °C 1018.3 hPa Calm   3.2 km/h 76% 0.0 mm 309 W/m2
16:13 17.7 °C 13 °C 1018.3 hPa West 3.2 km/h 12.9 km/h 74% 0.0 mm 285 W/m2
16:18 17.8 °C 12.9 °C 1018.3 hPa WSW 3.2 km/h 12.9 km/h 73% 0.0 mm 160 W/m2
16:23 17.8 °C 12.7 °C 1018.0 hPa ENE 3.2 km/h 6.4 km/h 72% 0.0 mm 139 W/m2
16:28 17.9 °C 12.6 °C 1018.0 hPa WSW 6.4 km/h 6.4 km/h 71% 0.0 mm 120 W/m2
16:33 17.9 °C 12.4 °C 1018.0 hPa NW 1.4 km/h 4.8 km/h 70% 0.0 mm 116 W/m2
16:38 18 °C 13.1 °C 1018.3 hPa NW 1.4 km/h 4.8 km/h 73% 0.0 mm 167 W/m2
16:43 17.9 °C 12.8 °C 1018.3 hPa West 1.4 km/h 6.4 km/h 72% 0.0 mm 142 W/m2
16:48 17.9 °C 13.2 °C 1018.3 hPa West 1.4 km/h 4.8 km/h 74% 0.0 mm 134 W/m2
16:53 17.8 °C 12.7 °C 1018.0 hPa SW 7.9 km/h 12.9 km/h 72% 0.0 mm 132 W/m2
16:58 17.7 °C 12.6 °C 1018.0 hPa West 4.7 km/h 11.3 km/h 72% 0.0 mm 125 W/m2
17:03 17.6 °C 12.7 °C 1018.0 hPa NW 1.4 km/h 12.9 km/h 73% 0.0 mm 102 W/m2
17:08 17.6 °C 13.3 °C 1018.0 hPa NW 3.2 km/h 3.2 km/h 76% 0.0 mm 113 W/m2
17:13 17.5 °C 13 °C 1018.0 hPa WNW 1.4 km/h 3.2 km/h 75% 0.0 mm 116 W/m2
17:18 17.6 °C 12.9 °C 1018.0 hPa West 3.2 km/h 4.8 km/h 74% 0.0 mm 102 W/m2
17:23 17.6 °C 12.7 °C 1018.0 hPa West 1.4 km/h 9.7 km/h 73% 0.0 mm 107 W/m2
17:28 17.6 °C 12.7 °C 1018.0 hPa WNW 1.4 km/h 4.8 km/h 73% 0.0 mm 91 W/m2
17:33 17.6 °C 12.7 °C 1018.0 hPa WNW 4.7 km/h 8 km/h 73% 0.0 mm 86 W/m2
17:38 17.7 °C 12.8 °C 1018.0 hPa Calm   3.2 km/h 73% 0.0 mm 90 W/m2
17:43 17.7 °C 13 °C 1018.0 hPa West 1.4 km/h 3.2 km/h 74% 0.0 mm 90 W/m2
17:48 17.6 °C 12.7 °C 1018.0 hPa Calm   4.8 km/h 73% 0.0 mm 72 W/m2
17:53 17.6 °C 12.7 °C 1018.0 hPa WNW 1.4 km/h 4.8 km/h 73% 0.0 mm 53 W/m2
17:58 17.6 °C 12.7 °C 1018.0 hPa Calm   3.2 km/h 73% 0.0 mm 53 W/m2
18:03 17.6 °C 12.7 °C 1017.6 hPa Calm   4.8 km/h 73% 0.0 mm 44 W/m2
18:08 17.6 °C 12.7 °C 1018.0 hPa WNW 3.2 km/h 6.4 km/h 73% 0.0 mm 42 W/m2
18:13 17.4 °C 12.5 °C 1017.6 hPa WNW 6.4 km/h 8 km/h 73% 0.0 mm 44 W/m2
18:18 17.4 °C 12.5 °C 1017.6 hPa Calm   4.8 km/h 73% 0.0 mm 53 W/m2
18:23 17.3 °C 12.6 °C 1017.6 hPa WSW 4.7 km/h 8 km/h 74% 0.0 mm 58 W/m2
18:28 17.2 °C 12.3 °C 1018.0 hPa WNW 7.9 km/h 16.1 km/h 73% 0.0 mm 44 W/m2
18:33 17.1 °C 12.6 °C 1018.0 hPa WNW 4.7 km/h 8 km/h 75% 0.0 mm 83 W/m2
18:38 16.9 °C 12.6 °C 1018.0 hPa WNW 1.4 km/h 3.2 km/h 76% 0.0 mm 53 W/m2
18:43 16.8 °C 12.5 °C 1017.6 hPa WSW 1.4 km/h 9.7 km/h 76% 0.0 mm 65 W/m2
18:48 16.8 °C 12.5 °C 1017.6 hPa WNW 1.4 km/h 3.2 km/h 76% 0.0 mm 84 W/m2
18:53 16.8 °C 12.5 °C 1017.6 hPa SSW 1.4 km/h 6.4 km/h 76% 0.0 mm 102 W/m2
18:58 16.9 °C 12.8 °C 1017.6 hPa WNW 3.2 km/h 4.8 km/h 77% 0.0 mm 53 W/m2
19:03 16.9 °C 12.6 °C 1017.6 hPa West 1.4 km/h 6.4 km/h 76% 0.0 mm 40 W/m2
19:08 16.9 °C 12.4 °C 1018.0 hPa WNW 11.1 km/h 16.1 km/h 75% 0.0 mm 40 W/m2
19:13 16.9 °C 12.4 °C 1018.0 hPa WNW 13 km/h 16.1 km/h 75% 0.0 mm 49 W/m2
19:18 16.7 °C 12.4 °C 1018.0 hPa WNW 16.3 km/h 17.7 km/h 76% 0.0 mm 49 W/m2
19:23 16.5 °C 12.5 °C 1018.0 hPa West 6.4 km/h 9.7 km/h 77% 0.0 mm 62 W/m2
19:28 16.4 °C 12.6 °C 1018.0 hPa West 11.1 km/h 12.9 km/h 78% 0.0 mm 39 W/m2
19:33 16.2 °C 12.4 °C 1018.0 hPa WNW 16.3 km/h 16.1 km/h 78% 0.0 mm 33 W/m2
19:38 16.1 °C 12.6 °C 1018.0 hPa West 9.7 km/h 9.7 km/h 80% 0.0 mm 35 W/m2
19:43 15.8 °C 12.5 °C 1018.0 hPa West 3.2 km/h 11.3 km/h 81% 0.0 mm 25 W/m2
19:48 15.7 °C 12.6 °C 1018.0 hPa NW 4.7 km/h 12.9 km/h 82% 0.0 mm 16 W/m2
19:53 15.6 °C 12.7 °C 1018.3 hPa West 9.7 km/h 12.9 km/h 83% 0.0 mm 14 W/m2
19:58 15.4 °C 12.7 °C 1018.3 hPa NW 4.7 km/h 9.7 km/h 84% 0.0 mm 12 W/m2
20:03 15.4 °C 12.7 °C 1018.0 hPa WNW 6.4 km/h 17.7 km/h 84% 0.0 mm 12 W/m2
20:08 15.3 °C 12.8 °C 1018.0 hPa West 9.7 km/h 12.9 km/h 85% 0.0 mm 11 W/m2
20:13 15.2 °C 12.7 °C 1018.0 hPa NW 4.7 km/h 9.7 km/h 85% 0.0 mm 12 W/m2
20:18 15.2 °C 12.7 °C 1018.0 hPa West 3.2 km/h 8 km/h 85% 0.0 mm 9 W/m2
20:23 15.2 °C 12.7 °C 1018.0 hPa NW 4.7 km/h 17.7 km/h 85% 0.0 mm 11 W/m2
20:28 15.2 °C 12.7 °C 1018.0 hPa WSW 7.9 km/h 9.7 km/h 85% 0.0 mm 5 W/m2
20:33 15.1 °C 12.6 °C 1018.3 hPa WSW 13 km/h 16.1 km/h 85% 0.0 mm 5 W/m2
20:38 15 °C 12.5 °C 1018.0 hPa WNW 3.2 km/h 11.3 km/h 85% 0.0 mm 5 W/m2
20:43 14.9 °C 12.6 °C 1018.0 hPa West 6.4 km/h 16.1 km/h 86% 0.0 mm 0 W/m2
20:48 14.9 °C 12.6 °C 1018.0 hPa WNW 3.2 km/h 6.4 km/h 86% 0.0 mm 0 W/m2
20:53 14.9 °C 12.6 °C 1018.0 hPa West 6.4 km/h 8 km/h 86% 0.0 mm 0 W/m2
20:58 14.9 °C 12.6 °C 1018.3 hPa WNW 7.9 km/h 8 km/h 86% 0.0 mm 0 W/m2
21:03 14.8 °C 12.5 °C 1018.3 hPa WNW 11.1 km/h 11.3 km/h 86% 0.0 mm 0 W/m2
21:08 14.8 °C 12.5 °C 1018.3 hPa West 4.7 km/h 11.3 km/h 86% 0.0 mm 0 W/m2
21:13 14.8 °C 12.5 °C 1018.3 hPa West 6.4 km/h 17.7 km/h 86% 0.0 mm 0 W/m2
21:18 14.8 °C 12.5 °C 1018.3 hPa WNW 11.1 km/h 12.9 km/h 86% 0.0 mm 0 W/m2
21:23 14.8 °C 12.7 °C 1018.3 hPa WNW 6.4 km/h 14.5 km/h 87% 0.0 mm 0 W/m2
21:28 14.6 °C 12.5 °C 1018.3 hPa WSW 3.2 km/h 12.9 km/h 87% 0.0 mm 0 W/m2
21:33 14.5 °C 12.5 °C 1018.3 hPa West 3.2 km/h 14.5 km/h 88% 0.0 mm 0 W/m2
21:38 14.4 °C 12.6 °C 1018.3 hPa WNW 7.9 km/h 12.9 km/h 89% 0.0 mm 0 W/m2
21:43 14.3 °C 12.7 °C 1018.3 hPa WSW 6.4 km/h 12.9 km/h 90% 0.0 mm 0 W/m2
21:48 14.2 °C 12.6 °C 1018.3 hPa WSW 3.2 km/h 9.7 km/h 90% 0.0 mm 0 W/m2
21:53 14.2 °C 12.8 °C 1018.3 hPa WNW 6.4 km/h 11.3 km/h 91% 0.0 mm 0 W/m2
21:58 14.1 °C 12.7 °C 1018.3 hPa West 6.4 km/h 14.5 km/h 91% 0.0 mm 0 W/m2
22:03 14.1 °C 12.7 °C 1018.3 hPa WSW 6.4 km/h 6.4 km/h 91% 0.2 mm 0 W/m2
22:13 14 °C 12.7 °C 1018.3 hPa WNW 4.7 km/h 6.4 km/h 92% 0.2 mm 0 W/m2
22:18 13.9 °C 12.6 °C 1018.3 hPa WNW 3.2 km/h 17.7 km/h 92% 0.2 mm 0 W/m2
22:23 13.9 °C 12.6 °C 1018.3 hPa WNW 11.1 km/h 11.3 km/h 92% 0.2 mm 0 W/m2
22:28 13.9 °C 12.8 °C 1018.3 hPa West 6.4 km/h 6.4 km/h 93% 0.5 mm 0 W/m2
22:33 13.9 °C 12.8 °C 1018.3 hPa NW 6.4 km/h 6.4 km/h 93% 0.5 mm 0 W/m2
22:38 13.9 °C 12.8 °C 1018.0 hPa WSW 11.1 km/h 11.3 km/h 93% 0.5 mm 0 W/m2
22:43 13.9 °C 12.8 °C 1018.3 hPa WNW 7.9 km/h 11.3 km/h 93% 0.5 mm 0 W/m2
22:48 13.9 °C 12.8 °C 1018.3 hPa WNW 3.2 km/h 11.3 km/h 93% 0.5 mm 0 W/m2
22:53 13.9 °C 12.8 °C 1018.0 hPa Calm   6.4 km/h 93% 0.5 mm 0 W/m2
22:58 13.9 °C 12.8 °C 1018.0 hPa NW 7.9 km/h 19.3 km/h 93% 0.5 mm 0 W/m2
23:03 13.9 °C 12.8 °C 1018.0 hPa WSW 4.7 km/h 12.9 km/h 93% 0.2 mm 0 W/m2
23:08 13.9 °C 12.8 °C 1018.0 hPa West 4.7 km/h 12.9 km/h 93% 0.5 mm 0 W/m2
23:13 13.9 °C 12.8 °C 1018.0 hPa NNW 7.9 km/h 12.9 km/h 93% 0.5 mm 0 W/m2
23:18 13.9 °C 12.8 °C 1018.0 hPa West 6.4 km/h 9.7 km/h 93% 0.5 mm 0 W/m2
23:23 13.9 °C 12.8 °C 1018.0 hPa West 9.7 km/h 14.5 km/h 93% 0.5 mm 0 W/m2
23:28 13.9 °C 12.8 °C 1018.0 hPa WNW 3.2 km/h 11.3 km/h 93% 0.2 mm 0 W/m2
23:33 13.9 °C 12.8 °C 1018.0 hPa West 4.7 km/h 14.5 km/h 93% 0.2 mm 0 W/m2
23:38 13.9 °C 12.8 °C 1018.0 hPa West 11.1 km/h 11.3 km/h 93% 0.2 mm 0 W/m2
23:43 13.9 °C 12.8 °C 1018.0 hPa NW 4.7 km/h 4.8 km/h 93% 0.2 mm 0 W/m2
23:48 13.9 °C 12.8 °C 1018.0 hPa WNW 3.2 km/h 4.8 km/h 93% 0.2 mm 0 W/m2
23:53 13.9 °C 12.8 °C 1018.3 hPa WNW 6.4 km/h 9.7 km/h 93% 0.2 mm 0 W/m2
23:58 14 °C 12.9 °C 1018.0 hPa West 4.7 km/h 6.4 km/h 93% 0.2 mm 0 W/m2
Juneau County Weather
Compliments of Weather Underground - 4 mb